sensor_id;sensor_type;location;lat;lon;timestamp;pressure;altitude;pressure_sealevel;temperature;humidity
23805;BME280;12083;52.098;7.582;2022-11-20T10:48:07;100830.78;;;2.45;100.00
23805;BME280;12083;52.098;7.582;2022-11-20T10:50:39;100817.56;;;3.05;100.00
23805;BME280;12083;52.098;7.582;2022-11-20T10:53:40;100807.53;;;3.64;100.00
23805;BME280;12083;52.098;7.582;2022-11-20T10:56:17;100801.75;;;4.33;100.00
23805;BME280;12083;52.098;7.582;2022-11-20T10:59:04;100794.91;;;5.14;100.00
23805;BME280;12083;52.098;7.582;2022-11-20T11:01:41;100790.47;;;5.70;100.00
23805;BME280;12083;52.098;7.582;2022-11-20T11:06:46;100777.91;;;6.54;100.00
23805;BME280;12083;52.098;7.582;2022-11-20T11:09:20;100771.31;;;7.16;99.23
23805;BME280;12083;52.098;7.582;2022-11-20T11:11:46;100765.53;;;7.72;94.50
23805;BME280;12083;52.098;7.582;2022-11-20T11:14:14;100753.31;;;8.41;94.05
23805;BME280;12083;52.098;7.582;2022-11-20T11:16:51;100750.53;;;9.04;90.64
23805;BME280;12083;52.098;7.582;2022-11-20T11:19:17;100755.28;;;9.31;87.24
23805;BME280;12083;52.098;7.582;2022-11-20T11:21:48;100750.09;;;9.28;84.73
23805;BME280;12083;52.098;7.582;2022-11-20T11:24:25;100744.47;;;9.03;83.53
23805;BME280;12083;52.098;7.582;2022-11-20T11:27:02;100745.75;;;8.77;83.53
23805;BME280;12083;52.098;7.582;2022-11-20T11:29:30;100752.97;;;8.64;84.91
23805;BME280;12083;52.098;7.582;2022-11-20T11:32:22;100747.16;;;8.42;85.95
23805;BME280;12083;52.098;7.582;2022-11-20T11:35:06;100744.88;;;8.18;86.92
23805;BME280;12083;52.098;7.582;2022-11-20T11:37:34;100745.16;;;7.97;88.09
23805;BME280;12083;52.098;7.582;2022-11-20T11:40:02;100741.09;;;7.76;88.38
23805;BME280;12083;52.098;7.582;2022-11-20T11:42:29;100742.19;;;7.55;88.61
23805;BME280;12083;52.098;7.582;2022-11-20T11:44:57;100738.88;;;7.41;89.93
23805;BME280;12083;52.098;7.582;2022-11-20T11:47:36;100736.31;;;7.35;91.30
23805;BME280;12083;52.098;7.582;2022-11-20T11:58:06;100728.63;;;7.20;94.03
23805;BME280;12083;52.098;7.582;2022-11-20T12:00:39;100725.97;;;7.25;94.76
23805;BME280;12083;52.098;7.582;2022-11-20T12:03:20;100730.13;;;7.44;95.09
23805;BME280;12083;52.098;7.582;2022-11-20T12:05:59;100726.94;;;7.88;94.92
23805;BME280;12083;52.098;7.582;2022-11-20T12:08:32;100712.06;;;8.55;92.65
23805;BME280;12083;52.098;7.582;2022-11-20T12:14:26;100703.56;;;9.84;81.37
23805;BME280;12083;52.098;7.582;2022-11-20T12:16:50;100688.28;;;10.42;80.81
23805;BME280;12083;52.098;7.582;2022-11-20T12:19:18;100676.72;;;10.85;77.39
23805;BME280;12083;52.098;7.582;2022-11-20T12:22:05;100673.31;;;11.44;76.60
23805;BME280;12083;52.098;7.582;2022-11-20T12:25:02;100665.19;;;11.83;74.11
23805;BME280;12083;52.098;7.582;2022-11-20T12:30:10;100648.53;;;12.12;72.86
23805;BME280;12083;52.098;7.582;2022-11-20T12:35:48;100647.94;;;12.02;71.92
23805;BME280;12083;52.098;7.582;2022-11-20T12:50:28;100654.34;;;10.33;76.54
23805;BME280;12083;52.098;7.582;2022-11-20T12:55:57;100647.47;;;9.89;79.94
23805;BME280;12083;52.098;7.582;2022-11-20T13:01:39;100651.88;;;9.47;82.86
23805;BME280;12083;52.098;7.582;2022-11-20T13:06:44;100658.97;;;8.96;85.98
23805;BME280;12083;52.098;7.582;2022-11-20T13:09:13;100647.25;;;8.70;87.03
23805;BME280;12083;52.098;7.582;2022-11-20T13:12:04;100651.22;;;8.41;88.85
23805;BME280;12083;52.098;7.582;2022-11-20T13:14:42;100649.00;;;8.14;89.80
23805;BME280;12083;52.098;7.582;2022-11-20T13:17:31;100639.78;;;7.89;91.22
23805;BME280;12083;52.098;7.582;2022-11-20T13:19:58;100637.47;;;7.68;93.38
23805;BME280;12083;52.098;7.582;2022-11-20T13:22:29;100626.41;;;7.49;94.60
23805;BME280;12083;52.098;7.582;2022-11-20T13:25:21;100618.81;;;7.29;96.33
23805;BME280;12083;52.098;7.582;2022-11-20T13:27:48;100614.66;;;7.11;97.60
23805;BME280;12083;52.098;7.582;2022-11-20T13:30:16;100603.56;;;6.94;98.18
23805;BME280;12083;52.098;7.582;2022-11-20T13:32:52;100599.38;;;6.77;98.99
23805;BME280;12083;52.098;7.582;2022-11-20T13:55:54;100567.63;;;4.88;100.00
